createdAt,value
2018-02-06T00:01:30.435Z,1016.79
2018-02-06T00:02:30.450Z,1016.74
2018-02-06T00:04:23.861Z,1016.72
2018-02-06T00:05:23.857Z,1016.77
2018-02-06T00:07:16.763Z,1016.72
2018-02-06T00:08:16.753Z,1016.75
2018-02-06T00:10:09.649Z,1016.71
2018-02-06T00:11:09.661Z,1016.68
2018-02-06T00:13:02.569Z,1016.66
2018-02-06T00:14:02.562Z,1016.67
2018-02-06T00:15:55.454Z,1016.67
2018-02-06T00:16:55.464Z,1016.67
2018-02-06T00:18:48.377Z,1016.64
2018-02-06T00:19:48.372Z,1016.62
2018-02-06T00:21:41.260Z,1016.55
2018-02-06T00:22:41.271Z,1016.57
2018-02-06T00:24:34.180Z,1016.49
2018-02-06T00:25:34.175Z,1016.50
2018-02-06T00:27:27.083Z,1016.46
2018-02-06T00:28:27.076Z,1016.43
2018-02-06T00:30:20.461Z,1016.41
2018-02-06T00:31:20.473Z,1016.41
2018-02-06T00:33:13.378Z,1016.39
2018-02-06T00:34:13.370Z,1016.33
2018-02-06T00:36:06.262Z,1016.27
2018-02-06T00:37:06.273Z,1016.24
2018-02-06T00:38:59.179Z,1016.17
2018-02-06T00:39:59.172Z,1016.19
2018-02-06T00:41:52.072Z,1016.23
2018-02-06T00:42:52.074Z,1016.23
2018-02-06T00:44:44.984Z,1016.19
2018-02-06T00:45:44.978Z,1016.14
2018-02-06T00:47:37.889Z,1016.12
2018-02-06T00:48:37.883Z,1016.11
2018-02-06T00:50:30.770Z,1016.07
2018-02-06T00:51:30.779Z,1016.02
2018-02-06T00:53:23.692Z,1016.01
2018-02-06T00:54:23.683Z,1015.96
2018-02-06T00:56:16.580Z,1015.93
2018-02-06T00:57:16.586Z,1015.93
2018-02-06T00:59:09.489Z,1015.89
2018-02-06T01:00:09.480Z,1015.86
2018-02-06T01:02:02.373Z,1015.89
2018-02-06T01:03:02.386Z,1015.87
2018-02-06T01:04:55.294Z,1015.86
2018-02-06T01:05:55.286Z,1015.83
2018-02-06T01:07:48.197Z,1015.80
2018-02-06T01:08:48.191Z,1015.78
2018-02-06T01:10:41.080Z,1015.75
2018-02-06T01:11:41.092Z,1015.71
2018-02-06T01:13:34.002Z,1015.74
2018-02-06T01:14:33.993Z,1015.75
2018-02-06T01:16:26.888Z,1015.70
2018-02-06T01:17:26.898Z,1015.71
2018-02-06T01:19:19.805Z,1015.61
2018-02-06T01:20:19.802Z,1015.62
2018-02-06T01:22:12.694Z,1015.60
2018-02-06T01:23:12.704Z,1015.63
2018-02-06T01:25:05.614Z,1015.60
2018-02-06T01:26:05.610Z,1015.58
2018-02-06T01:28:01.518Z,1015.56
2018-02-06T01:29:01.510Z,1015.58
2018-02-06T01:30:54.401Z,1015.57
2018-02-06T01:31:54.413Z,1015.57
2018-02-06T01:33:47.322Z,1015.53
2018-02-06T01:34:47.317Z,1015.54
2018-02-06T01:36:40.256Z,1015.46
2018-02-06T01:37:40.213Z,1015.46
2018-02-06T01:39:33.120Z,1015.43
2018-02-06T01:40:33.114Z,1015.44
2018-02-06T01:42:26.497Z,1015.35
2018-02-06T01:43:26.510Z,1015.27
2018-02-06T01:45:19.420Z,1015.26
2018-02-06T01:46:19.405Z,1015.29
2018-02-06T01:48:12.313Z,1015.21
2018-02-06T01:49:12.313Z,1015.23
2018-02-06T01:51:05.204Z,1015.22
2018-02-06T01:52:05.216Z,1015.21
2018-02-06T01:53:58.124Z,1015.16
2018-02-06T01:54:58.113Z,1015.18
2018-02-06T01:56:51.005Z,1015.16
2018-02-06T01:57:51.016Z,1015.17
2018-02-06T01:59:43.925Z,1015.11
2018-02-06T02:00:43.917Z,1015.10
2018-02-06T02:02:36.809Z,1015.03
2018-02-06T02:03:36.822Z,1015.06
2018-02-06T02:05:29.727Z,1015.01
2018-02-06T02:06:29.720Z,1015.00
2018-02-06T02:08:22.627Z,1014.98
2018-02-06T02:09:22.619Z,1014.99
2018-02-06T02:11:15.506Z,1014.92
2018-02-06T02:12:15.517Z,1014.96
2018-02-06T02:14:08.427Z,1014.95
2018-02-06T02:15:08.423Z,1014.93
2018-02-06T02:17:01.316Z,1014.85
2018-02-06T02:18:01.315Z,1014.84
2018-02-06T02:19:54.226Z,1014.82
2018-02-06T02:20:54.217Z,1014.82
2018-02-06T02:22:47.110Z,1014.80
2018-02-06T02:23:47.118Z,1014.81
2018-02-06T02:25:40.025Z,1014.77
2018-02-06T02:26:40.016Z,1014.75
2018-02-06T02:28:32.927Z,1014.75
2018-02-06T02:29:32.921Z,1014.73
2018-02-06T02:31:25.809Z,1014.71
2018-02-06T02:32:25.818Z,1014.70
2018-02-06T02:34:18.735Z,1014.69
2018-02-06T02:35:18.726Z,1014.65
2018-02-06T02:37:11.614Z,1014.62
2018-02-06T02:38:11.626Z,1014.63
2018-02-06T02:40:04.535Z,1014.55
2018-02-06T02:41:04.528Z,1014.57
2018-02-06T04:39:16.912Z,1013.40
2018-02-06T04:41:09.835Z,1013.40
2018-02-06T04:42:09.810Z,1013.38
2018-02-06T04:44:02.698Z,1013.36
2018-02-06T04:45:02.709Z,1013.36
2018-02-06T04:46:55.620Z,1013.40
2018-02-06T04:47:55.604Z,1013.39
2018-02-06T04:49:48.519Z,1013.39
2018-02-06T04:50:48.502Z,1013.37
2018-02-06T04:52:41.886Z,1013.35
2018-02-06T04:53:41.898Z,1013.34
2018-02-06T04:55:34.801Z,1013.32
2018-02-06T04:56:34.793Z,1013.30
2018-02-06T04:58:27.680Z,1013.25
2018-02-06T04:59:27.690Z,1013.23
2018-02-06T05:01:20.600Z,1013.24
2018-02-06T05:02:20.593Z,1013.21
2018-02-06T05:04:13.480Z,1013.20
2018-02-06T05:05:13.488Z,1013.22
2018-02-06T05:07:06.400Z,1013.20
2018-02-06T05:08:06.391Z,1013.18
2018-02-06T05:09:59.316Z,1013.12
2018-02-06T05:10:59.305Z,1013.10
2018-02-06T05:12:52.262Z,1013.12
2018-02-06T05:13:52.274Z,1013.11
2018-02-06T05:15:45.241Z,1013.08
2018-02-06T05:16:45.232Z,1013.09
2018-02-06T05:18:38.175Z,1013.08
2018-02-06T05:19:38.186Z,1013.03
2018-02-06T05:21:31.095Z,1013.03
2018-02-06T05:22:31.086Z,1013.02
2018-02-06T05:24:24.086Z,1012.99
2018-02-06T05:25:24.098Z,1013.02
2018-02-06T05:27:17.057Z,1012.98
2018-02-06T05:28:17.049Z,1012.98
2018-02-06T05:30:10.014Z,1012.96
2018-02-06T05:31:10.006Z,1012.94
2018-02-06T05:33:02.950Z,1012.93
2018-02-06T05:34:03.066Z,1012.83
2018-02-06T05:35:55.919Z,1012.87
2018-02-06T05:36:55.907Z,1012.82
2018-02-06T05:38:48.851Z,1012.84
2018-02-06T05:39:48.862Z,1012.83
2018-02-06T05:41:41.831Z,1012.78
2018-02-06T05:42:41.818Z,1012.79
2018-02-06T05:44:34.761Z,1012.77
2018-02-06T05:45:34.771Z,1012.75
2018-02-06T05:47:28.763Z,1012.76
2018-02-06T05:48:28.747Z,1012.78
2018-02-06T05:50:21.711Z,1012.67
2018-02-06T05:51:21.704Z,1012.63
2018-02-06T05:53:14.646Z,1012.63
2018-02-06T05:54:14.658Z,1012.60
2018-02-06T05:56:07.621Z,1012.61
2018-02-06T05:57:07.610Z,1012.59
2018-02-06T05:59:00.556Z,1012.64
2018-02-06T06:00:00.565Z,1012.58
2018-02-06T06:01:53.471Z,1012.57
2018-02-06T06:02:53.470Z,1012.55
2018-02-06T06:04:46.352Z,1012.51
2018-02-06T06:05:46.374Z,1012.52
2018-02-06T06:07:39.269Z,1012.55
2018-02-06T06:08:39.260Z,1012.55
2018-02-06T06:10:32.168Z,1012.46
2018-02-06T06:11:32.157Z,1012.46
2018-02-06T06:13:25.552Z,1012.46
2018-02-06T06:14:25.565Z,1012.42
2018-02-06T06:16:18.467Z,1012.41
2018-02-06T06:17:18.462Z,1012.40
2018-02-06T06:19:11.346Z,1012.38
2018-02-06T06:20:11.357Z,1012.38
2018-02-06T06:22:04.264Z,1012.34
2018-02-06T06:23:04.255Z,1012.39
2018-02-06T06:24:57.636Z,1012.27
2018-02-06T06:25:57.650Z,1012.30
2018-02-06T06:27:50.562Z,1012.27
2018-02-06T06:28:50.554Z,1012.25
2018-02-06T06:30:43.457Z,1012.22
2018-02-06T06:31:43.451Z,1012.20
2018-02-06T06:33:36.337Z,1012.23
2018-02-06T06:34:36.347Z,1012.19
2018-02-06T06:36:29.260Z,1012.15
2018-02-06T06:37:29.246Z,1012.15
2018-02-06T06:39:22.640Z,1012.17
2018-02-06T06:40:22.647Z,1012.19
2018-02-06T06:42:15.540Z,1012.14
2018-02-06T06:43:15.533Z,1012.19
2018-02-06T06:45:08.422Z,1012.13
2018-02-06T06:46:08.430Z,1012.17
2018-02-06T06:48:01.346Z,1012.14
2018-02-06T06:49:01.339Z,1012.11
2018-02-06T06:50:54.244Z,1012.06
2018-02-06T06:51:54.249Z,1012.07
2018-02-06T06:53:47.125Z,1012.06
2018-02-06T06:54:47.136Z,1012.10
2018-02-06T06:56:40.042Z,1012.06
2018-02-06T06:57:40.034Z,1012.08
2018-02-06T06:59:32.923Z,1012.03
2018-02-06T07:00:32.934Z,1011.99
2018-02-06T07:02:25.855Z,1012.04
2018-02-06T07:03:25.831Z,1012.02
2018-02-06T07:05:19.214Z,1012.04
2018-02-06T07:06:19.223Z,1012.01
2018-02-06T07:08:12.127Z,1011.98
2018-02-06T07:09:12.118Z,1012.01
2018-02-06T07:11:05.031Z,1011.95
2018-02-06T07:12:05.016Z,1011.90
2018-02-06T07:13:57.905Z,1011.92
2018-02-06T07:14:57.918Z,1011.92
2018-02-06T07:16:50.827Z,1011.94
2018-02-06T07:17:50.817Z,1011.93
2018-02-06T07:19:43.707Z,1011.94
2018-02-06T07:20:43.714Z,1011.90
2018-02-06T07:22:36.621Z,1011.94
2018-02-06T07:23:36.610Z,1011.90
2018-02-06T07:25:29.502Z,1011.85
2018-02-06T07:26:29.509Z,1011.85
2018-02-06T07:28:22.415Z,1011.86
2018-02-06T07:29:22.405Z,1011.84
2018-02-06T07:31:15.806Z,1011.84
2018-02-06T07:32:15.798Z,1011.83
2018-02-06T07:34:08.691Z,1011.80
2018-02-06T07:35:08.697Z,1011.80
2018-02-06T07:37:01.600Z,1011.84
2018-02-06T07:38:01.591Z,1011.84
2018-02-06T07:39:54.483Z,1011.78
2018-02-06T07:40:54.491Z,1011.83
2018-02-06T07:42:47.397Z,1011.81
2018-02-06T07:43:47.388Z,1011.78
2018-02-06T07:45:40.329Z,1011.80
2018-02-06T07:46:40.289Z,1011.80
2018-02-06T07:48:33.200Z,1011.74
2018-02-06T07:49:33.193Z,1011.75
2018-02-06T07:51:26.103Z,1011.76
2018-02-06T07:52:26.090Z,1011.78
2018-02-06T07:54:18.994Z,1011.75
2018-02-06T07:55:19.003Z,1011.75
2018-02-06T07:57:11.910Z,1011.76
2018-02-06T07:58:11.903Z,1011.72
2018-02-06T08:00:04.807Z,1011.80
2018-02-06T08:01:04.816Z,1011.73
2018-02-06T08:02:57.735Z,1011.80
2018-02-06T08:03:57.727Z,1011.80
2018-02-06T08:05:50.614Z,1011.82
2018-02-06T08:06:50.625Z,1011.78
2018-02-06T08:08:43.541Z,1011.75
2018-02-06T08:09:43.532Z,1011.77
2018-02-06T08:11:36.439Z,1011.78
2018-02-06T08:12:36.430Z,1011.69
2018-02-06T08:14:29.343Z,1011.68
2018-02-06T08:15:29.333Z,1011.71
2018-02-06T08:17:22.241Z,1011.70
2018-02-06T08:18:22.233Z,1011.70
2018-02-06T08:20:15.128Z,1011.70
2018-02-06T08:21:15.135Z,1011.70
2018-02-06T08:23:08.040Z,1011.70
2018-02-06T08:24:08.033Z,1011.71
2018-02-06T08:26:00.927Z,1011.74
2018-02-06T08:27:00.931Z,1011.64
2018-02-06T08:28:53.840Z,1011.64
2018-02-06T08:29:53.830Z,1011.61
2018-02-06T08:31:46.740Z,1011.61
2018-02-06T08:32:46.735Z,1011.57
2018-02-06T08:34:39.644Z,1011.54
2018-02-06T08:35:39.638Z,1011.52
2018-02-06T08:37:32.545Z,1011.53
2018-02-06T08:38:32.539Z,1011.52
2018-02-06T08:40:25.432Z,1011.44
2018-02-06T08:41:25.447Z,1011.45
2018-02-06T08:43:18.356Z,1011.43
2018-02-06T08:44:18.354Z,1011.40
2018-02-06T08:46:11.242Z,1011.38
2018-02-06T08:47:11.246Z,1011.42
2018-02-06T08:49:04.160Z,1011.37
2018-02-06T08:50:04.162Z,1011.38
2018-02-06T08:51:57.043Z,1011.36
2018-02-06T08:52:57.052Z,1011.40
2018-02-06T08:54:49.962Z,1011.39
2018-02-06T08:55:49.950Z,1011.36
2018-02-06T08:57:42.862Z,1011.36
2018-02-06T08:58:42.868Z,1011.30
2018-02-06T09:00:35.747Z,1011.33
2018-02-06T09:01:35.758Z,1011.29
2018-02-06T09:03:28.667Z,1011.27
2018-02-06T09:04:28.659Z,1011.20
2018-02-06T09:06:21.549Z,1011.18
2018-02-06T09:07:21.562Z,1011.21
2018-02-06T09:09:14.470Z,1011.16
2018-02-06T09:10:14.464Z,1011.17
2018-02-06T09:12:07.358Z,1011.08
2018-02-06T09:13:07.368Z,1011.12
2018-02-06T09:15:00.276Z,1011.09
2018-02-06T09:16:00.267Z,1011.09
2018-02-06T09:17:53.177Z,1011.05
2018-02-06T09:18:53.170Z,1011.05
2018-02-06T09:20:46.072Z,1011.06
2018-02-06T09:21:46.079Z,1011.05
2018-02-06T09:23:38.988Z,1010.99
2018-02-06T09:24:38.983Z,1011.00
2018-02-06T09:26:31.879Z,1010.97
2018-02-06T09:27:31.890Z,1010.94
2018-02-06T09:29:24.803Z,1010.97
2018-02-06T09:30:24.789Z,1010.94
2018-02-06T09:32:17.684Z,1010.96
2018-02-06T09:33:17.694Z,1011.02
2018-02-06T09:35:10.603Z,1011.00
2018-02-06T09:36:10.593Z,1010.97
2018-02-06T09:38:03.503Z,1010.98
2018-02-06T09:39:03.500Z,1010.92
2018-02-06T09:40:56.394Z,1010.93
2018-02-06T09:41:56.401Z,1010.98
2018-02-06T09:43:49.319Z,1010.99
2018-02-06T09:44:49.315Z,1010.94
2018-02-06T09:46:42.706Z,1010.97
2018-02-06T09:47:42.712Z,1010.89
2018-02-06T09:49:35.623Z,1010.92
2018-02-06T09:50:35.618Z,1010.89
2018-02-06T09:52:28.510Z,1010.90
2018-02-06T09:53:28.523Z,1010.95
2018-02-06T09:55:21.440Z,1010.91
2018-02-06T09:56:21.428Z,1010.94
2018-02-06T09:58:14.346Z,1010.93
2018-02-06T09:59:14.331Z,1010.94
2018-02-06T10:01:07.236Z,1010.96
2018-02-06T10:02:07.237Z,1010.98
2018-02-06T10:04:00.641Z,1011.01
2018-02-06T10:05:00.638Z,1010.98
2018-02-06T10:06:53.532Z,1010.97
2018-02-06T10:07:53.545Z,1010.94
2018-02-06T10:09:46.460Z,1010.89
2018-02-06T10:10:46.453Z,1010.92
2018-02-06T10:12:39.350Z,1010.93
2018-02-06T10:13:39.362Z,1010.88
2018-02-06T10:15:32.271Z,1010.85
2018-02-06T10:16:32.265Z,1010.83
2018-02-06T10:18:25.177Z,1010.82
2018-02-06T10:19:25.171Z,1010.77
2018-02-06T10:21:18.070Z,1010.70
2018-02-06T10:22:18.081Z,1010.68
2018-02-06T10:24:10.991Z,1010.68
2018-02-06T10:25:10.984Z,1010.70
2018-02-06T10:27:03.879Z,1010.66
2018-02-06T10:28:03.889Z,1010.61
2018-02-06T10:29:56.802Z,1010.60
2018-02-06T10:30:56.796Z,1010.60
2018-02-06T10:32:49.690Z,1010.61
2018-02-06T10:33:49.705Z,1010.59
2018-02-06T10:35:42.613Z,1010.59
2018-02-06T10:36:42.610Z,1010.61
2018-02-06T10:38:35.520Z,1010.61
2018-02-06T10:39:35.513Z,1010.61
2018-02-06T10:41:28.410Z,1010.53
2018-02-06T10:42:28.423Z,1010.51
2018-02-06T10:44:21.339Z,1010.50
2018-02-06T10:45:21.330Z,1010.47
2018-02-06T10:47:14.717Z,1010.44
2018-02-06T10:48:14.734Z,1010.46
2018-02-06T10:50:07.645Z,1010.49
2018-02-06T10:51:07.641Z,1010.53
2018-02-06T10:53:00.537Z,1010.47
2018-02-06T10:54:00.552Z,1010.48
2018-02-06T10:55:53.462Z,1010.47
2018-02-06T10:56:53.456Z,1010.48
2018-02-06T10:58:46.374Z,1010.46
2018-02-06T10:59:46.362Z,1010.45
2018-02-06T11:01:39.261Z,1010.41
2018-02-06T11:02:39.275Z,1010.43
2018-02-06T11:04:33.178Z,1010.36
2018-02-06T11:05:33.174Z,1010.28
2018-02-06T11:07:26.071Z,1010.31
2018-02-06T11:08:26.087Z,1010.31
2018-02-06T11:10:18.994Z,1010.32
2018-02-06T11:11:18.993Z,1010.35
2018-02-06T11:13:11.892Z,1010.32
2018-02-06T11:14:11.904Z,1010.28
2018-02-06T11:16:04.818Z,1010.23
2018-02-06T11:17:04.810Z,1010.22
2018-02-06T11:18:57.722Z,1010.28
2018-02-06T11:19:57.732Z,1010.24
2018-02-06T11:21:50.610Z,1010.22
2018-02-06T11:22:50.620Z,1010.23
2018-02-06T11:24:43.536Z,1010.22
2018-02-06T11:25:43.527Z,1010.18
2018-02-06T11:27:36.421Z,1010.19
2018-02-06T11:28:36.438Z,1010.15
2018-02-06T11:30:29.348Z,1010.28
2018-02-06T11:31:29.343Z,1010.22
2018-02-06T11:33:22.241Z,1010.27
2018-02-06T11:34:22.257Z,1010.22
2018-02-06T11:36:15.163Z,1010.21
2018-02-06T11:37:15.160Z,1010.22
2018-02-06T11:39:08.073Z,1010.20
2018-02-06T11:40:08.067Z,1010.17
2018-02-06T11:42:00.966Z,1010.13
2018-02-06T11:43:00.975Z,1010.12
2018-02-06T11:44:53.887Z,1010.13
2018-02-06T11:45:53.881Z,1010.18
2018-02-06T11:47:46.775Z,1010.08
2018-02-06T11:48:46.789Z,1010.12
2018-02-06T11:50:39.699Z,1010.14
2018-02-06T11:51:39.692Z,1010.13
2018-02-06T11:53:32.587Z,1010.04
2018-02-06T11:54:32.599Z,1010.04
2018-02-06T11:56:25.514Z,1010.01
2018-02-06T11:57:25.507Z,1010.01
2018-02-06T11:59:18.420Z,1010.02
2018-02-06T12:00:18.416Z,1010.02
2018-02-06T12:02:11.309Z,1009.96
2018-02-06T12:03:11.322Z,1009.93
2018-02-06T12:05:04.729Z,1009.91
2018-02-06T12:06:04.724Z,1009.86
2018-02-06T12:07:57.615Z,1009.82
2018-02-06T12:08:57.629Z,1009.80
2018-02-06T12:10:50.553Z,1009.78
2018-02-06T12:11:50.548Z,1009.78
2018-02-06T12:13:43.440Z,1009.73
2018-02-06T12:14:43.452Z,1009.75
2018-02-06T12:16:36.370Z,1009.69
2018-02-06T12:17:36.365Z,1009.72
2018-02-06T12:19:29.280Z,1009.69
2018-02-06T12:20:29.276Z,1009.69
2018-02-06T12:22:22.170Z,1009.56
2018-02-06T12:23:22.180Z,1009.56
2018-02-06T12:25:15.100Z,1009.54
2018-02-06T12:26:15.092Z,1009.51
2018-02-06T12:28:07.987Z,1009.52
2018-02-06T12:29:08.002Z,1009.50
2018-02-06T12:31:00.918Z,1009.50
2018-02-06T12:32:00.914Z,1009.50
2018-02-06T12:33:53.805Z,1009.43
2018-02-06T12:34:53.821Z,1009.41
2018-02-06T12:36:46.737Z,1009.36
2018-02-06T12:37:46.732Z,1009.30
2018-02-06T12:39:39.646Z,1009.30
2018-02-06T12:40:39.640Z,1009.27
2018-02-06T12:42:32.539Z,1009.30
2018-02-06T12:43:32.550Z,1009.22
2018-02-06T12:45:25.465Z,1009.20
2018-02-06T12:46:25.460Z,1009.20
2018-02-06T12:48:18.360Z,1009.14
2018-02-06T12:49:18.372Z,1009.09
2018-02-06T12:51:11.289Z,1009.10
2018-02-06T12:52:11.286Z,1009.05
2018-02-06T12:54:04.180Z,1008.99
2018-02-06T12:55:04.194Z,1008.92
2018-02-06T12:56:57.112Z,1008.99
2018-02-06T12:57:57.109Z,1008.95
2018-02-06T12:59:50.024Z,1008.97
2018-02-06T13:00:50.018Z,1008.96
2018-02-06T13:02:42.920Z,1008.99
2018-02-06T13:03:42.932Z,1008.90
2018-02-06T13:05:35.851Z,1008.91
2018-02-06T13:06:35.846Z,1008.90
2018-02-06T13:08:28.742Z,1008.89
2018-02-06T13:09:28.757Z,1008.86
2018-02-06T13:11:21.755Z,1008.85
2018-02-06T13:12:21.749Z,1008.85
2018-02-06T13:14:14.692Z,1008.80
2018-02-06T13:15:14.709Z,1008.84
2018-02-06T13:17:07.676Z,1008.75
2018-02-06T13:18:07.672Z,1008.74
2018-02-06T13:20:00.618Z,1008.76
2018-02-06T13:21:00.614Z,1008.74
2018-02-06T13:22:53.553Z,1008.73
2018-02-06T13:23:53.569Z,1008.69
2018-02-06T13:25:46.528Z,1008.72
2018-02-06T13:26:46.525Z,1008.73
2018-02-06T13:28:39.465Z,1008.67
2018-02-06T13:29:39.480Z,1008.66
2018-02-06T13:31:32.948Z,1008.68
2018-02-06T13:32:32.950Z,1008.64
2018-02-06T13:34:26.394Z,1008.59
2018-02-06T13:35:26.407Z,1008.56
2018-02-06T13:37:19.366Z,1008.61
2018-02-06T13:38:19.363Z,1008.61
2018-02-06T13:40:12.832Z,1008.57
2018-02-06T13:41:12.827Z,1008.55
2018-02-06T13:43:05.776Z,1008.52
2018-02-06T13:44:05.783Z,1008.52
2018-02-06T13:45:58.745Z,1008.56
2018-02-06T13:46:58.736Z,1008.53
2018-02-06T13:48:51.642Z,1008.44
2018-02-06T13:49:51.649Z,1008.52
2018-02-06T13:51:44.652Z,1008.48
2018-02-06T13:52:44.650Z,1008.50
2018-02-06T13:54:37.587Z,1008.47
2018-02-06T13:55:37.597Z,1008.47
2018-02-06T13:57:30.563Z,1008.45
2018-02-06T13:58:30.554Z,1008.44
2018-02-06T14:00:23.516Z,1008.46
2018-02-06T14:01:23.514Z,1008.44
2018-02-06T14:03:16.458Z,1008.40
2018-02-06T14:04:16.493Z,1008.36
2018-02-06T14:06:09.424Z,1008.30
2018-02-06T14:07:09.416Z,1008.33
2018-02-06T14:09:02.372Z,1008.25
2018-02-06T14:10:02.370Z,1008.20
2018-02-06T14:11:55.376Z,1008.23
2018-02-06T14:12:55.327Z,1008.19
2018-02-06T14:14:48.775Z,1008.15
2018-02-06T14:15:48.791Z,1008.19
2018-02-06T14:17:42.286Z,1008.22
2018-02-06T14:18:42.268Z,1008.22
2018-02-06T14:20:35.214Z,1008.22
2018-02-06T14:21:35.209Z,1008.23
2018-02-06T14:23:28.152Z,1008.24
2018-02-06T14:24:28.228Z,1008.25
2018-02-06T14:26:21.124Z,1008.30
2018-02-06T14:27:21.118Z,1008.33
2018-02-06T14:29:14.061Z,1008.29
2018-02-06T14:30:14.075Z,1008.35
2018-02-06T14:32:07.544Z,1008.30
2018-02-06T14:33:07.540Z,1008.28
2018-02-06T14:35:00.511Z,1008.26
2018-02-06T14:36:00.494Z,1008.19
2018-02-06T14:37:53.453Z,1008.14
2018-02-06T14:38:53.447Z,1008.15
2018-02-06T14:40:46.360Z,1008.08
2018-02-06T14:41:46.353Z,1008.12
2018-02-06T14:43:39.346Z,1008.10
2018-02-06T14:44:39.358Z,1008.13
2018-02-06T14:46:32.314Z,1008.07
2018-02-06T14:47:32.311Z,1008.05
2018-02-06T14:49:25.249Z,1008.05
2018-02-06T14:50:25.265Z,1008.04
2018-02-06T14:52:18.225Z,1008.02
2018-02-06T14:53:18.220Z,1008.03
2018-02-06T14:55:11.163Z,1008.05
2018-02-06T14:56:11.171Z,1008.00
2018-02-06T14:58:04.134Z,1008.05
2018-02-06T14:59:04.132Z,1007.97
2018-02-06T15:00:57.086Z,1007.96
2018-02-06T15:01:57.112Z,1007.95
2018-02-06T15:03:50.021Z,1007.95
2018-02-06T15:04:50.035Z,1007.98
2018-02-06T15:06:42.993Z,1008.05
2018-02-06T15:07:42.991Z,1008.00
2018-02-06T15:09:35.928Z,1007.99
2018-02-06T15:10:35.943Z,1008.00
2018-02-06T15:12:28.905Z,1008.01
2018-02-06T15:13:28.903Z,1007.99
2018-02-06T15:15:21.836Z,1008.00
2018-02-06T15:16:21.953Z,1008.06
2018-02-06T15:18:15.323Z,1008.06
2018-02-06T15:19:15.317Z,1008.09
2018-02-06T15:21:08.300Z,1008.10
2018-02-06T15:22:08.273Z,1008.08
2018-02-06T15:24:01.235Z,1008.03
2018-02-06T15:25:01.226Z,1008.09
2018-02-06T15:26:54.186Z,1008.09
2018-02-06T15:27:54.181Z,1008.07
2018-02-06T15:29:47.141Z,1008.09
2018-02-06T15:30:47.134Z,1008.07
2018-02-06T15:32:40.097Z,1008.08
2018-02-06T15:33:40.091Z,1008.08
2018-02-06T15:35:33.031Z,1008.13
2018-02-06T15:36:33.044Z,1008.14
2018-02-06T15:38:26.004Z,1008.10
2018-02-06T15:39:25.997Z,1008.08
2018-02-06T15:41:19.102Z,1008.11
2018-02-06T15:42:19.109Z,1008.09
2018-02-06T15:44:11.996Z,1008.09
2018-02-06T15:45:12.009Z,1008.15
2018-02-06T15:47:04.971Z,1008.07
2018-02-06T15:48:04.969Z,1008.07
2018-02-06T15:49:58.419Z,1008.07
2018-02-06T15:50:58.435Z,1007.99
2018-02-06T15:52:51.429Z,1008.05
2018-02-06T15:53:51.383Z,1008.12
2018-02-06T15:55:44.325Z,1008.16
2018-02-06T15:56:44.338Z,1008.13
2018-02-06T15:58:37.819Z,1008.12
2018-02-06T15:59:37.810Z,1008.10
2018-02-06T16:01:30.763Z,1008.17
2018-02-06T16:02:30.761Z,1008.15
2018-02-06T16:04:24.226Z,1008.17
2018-02-06T16:05:24.224Z,1008.15
2018-02-06T16:07:18.724Z,1008.20
2018-02-06T16:08:18.720Z,1008.17
2018-02-06T16:10:12.170Z,1008.13
2018-02-06T16:11:12.187Z,1008.12
2018-02-06T16:13:05.143Z,1008.07
2018-02-06T16:14:05.215Z,1008.11
2018-02-06T16:15:58.077Z,1008.09
2018-02-06T16:16:58.093Z,1008.11
2018-02-06T16:18:51.051Z,1008.12
2018-02-06T16:19:51.053Z,1008.13
2018-02-06T16:21:44.006Z,1008.11
2018-02-06T16:22:44.002Z,1008.07
2018-02-06T16:24:36.940Z,1008.04
2018-02-06T16:25:36.962Z,1008.03
2018-02-06T16:27:29.913Z,1008.04
2018-02-06T16:28:29.911Z,1008.02
2018-02-06T16:30:22.852Z,1008.01
2018-02-06T16:31:22.864Z,1008.01
2018-02-06T16:33:15.822Z,1008.01
2018-02-06T16:34:15.822Z,1008.01
2018-02-06T16:36:08.760Z,1008.01
2018-02-06T16:37:08.774Z,1007.97
2018-02-06T16:39:11.682Z,1007.97
2018-02-06T16:40:11.682Z,1008.01
2018-02-06T16:42:04.584Z,1007.97
2018-02-06T16:43:04.580Z,1007.98
2018-02-06T16:44:57.466Z,1007.93
2018-02-06T16:45:57.479Z,1007.95
2018-02-06T16:47:50.391Z,1007.98
2018-02-06T16:48:50.386Z,1007.97
2018-02-06T16:50:43.272Z,1007.99
2018-02-06T16:51:43.285Z,1007.96
2018-02-06T16:53:36.194Z,1008.00
2018-02-06T16:54:36.191Z,1007.99
2018-02-06T16:56:29.082Z,1008.03
2018-02-06T16:57:29.103Z,1007.99
2018-02-06T16:59:22.002Z,1008.02
2018-02-06T17:00:21.998Z,1007.97
2018-02-06T17:02:14.905Z,1007.93
2018-02-06T17:03:14.898Z,1007.99
2018-02-06T17:05:07.790Z,1007.93
2018-02-06T17:06:07.803Z,1007.90
2018-02-06T17:08:00.711Z,1007.95
2018-02-06T17:09:00.705Z,1007.95
2018-02-06T17:10:53.607Z,1007.87
2018-02-06T17:11:53.610Z,1007.94
2018-02-06T17:13:46.517Z,1007.92
2018-02-06T17:14:46.512Z,1007.88
2018-02-06T17:16:39.398Z,1007.88
2018-02-06T17:17:39.412Z,1007.92
2018-02-06T17:19:32.323Z,1007.93
2018-02-06T17:20:32.313Z,1007.95
2018-02-06T17:22:25.345Z,1007.98
2018-02-06T17:23:25.217Z,1008.01
2018-02-06T17:25:18.118Z,1007.95
2018-02-06T17:26:18.125Z,1007.93
2018-02-06T17:28:11.034Z,1007.93
2018-02-06T17:29:11.025Z,1007.91
2018-02-06T17:31:03.915Z,1007.95
2018-02-06T17:32:04.016Z,1008.01
2018-02-06T17:33:56.835Z,1008.01
2018-02-06T17:34:56.823Z,1008.01
2018-02-06T17:36:49.719Z,1008.00
2018-02-06T17:37:49.735Z,1008.00
2018-02-06T17:39:42.649Z,1008.06
2018-02-06T17:40:42.632Z,1008.08
2018-02-06T17:42:35.543Z,1008.08
2018-02-06T17:43:35.539Z,1008.09
2018-02-06T17:45:28.430Z,1008.02
2018-02-06T17:46:28.439Z,1008.08
2018-02-06T17:48:21.357Z,1008.05
2018-02-06T17:49:21.344Z,1008.02
2018-02-06T17:51:14.234Z,1008.00
2018-02-06T17:52:14.245Z,1007.96
2018-02-06T17:54:07.153Z,1007.98
2018-02-06T17:55:07.168Z,1007.92
2018-02-06T17:57:00.084Z,1007.91
2018-02-06T17:58:00.085Z,1007.91
2018-02-06T17:59:52.992Z,1007.94
2018-02-06T18:00:52.983Z,1007.93
2018-02-06T18:02:45.897Z,1007.95
2018-02-06T18:03:45.899Z,1007.97
2018-02-06T18:05:38.800Z,1007.97
2018-02-06T18:06:38.816Z,1007.95
2018-02-06T18:08:31.758Z,1007.94
2018-02-06T18:09:31.738Z,1007.91
2018-02-06T18:11:25.106Z,1007.92
2018-02-06T18:12:25.118Z,1007.94
2018-02-06T18:14:18.025Z,1007.96
2018-02-06T18:15:18.033Z,1007.97
2018-02-06T18:17:10.909Z,1007.98
2018-02-06T18:18:10.921Z,1008.02
2018-02-06T18:20:03.835Z,1008.02
2018-02-06T18:21:03.826Z,1008.00
2018-02-06T18:22:56.748Z,1008.02
2018-02-06T18:23:56.753Z,1008.00
2018-02-06T18:25:49.633Z,1008.04
2018-02-06T18:26:49.644Z,1008.05
2018-02-06T18:28:42.586Z,1008.00
2018-02-06T18:29:42.555Z,1008.06
2018-02-06T18:31:35.456Z,1008.01
2018-02-06T18:32:35.454Z,1008.01
2018-02-06T18:34:28.363Z,1008.05
2018-02-06T18:35:28.356Z,1008.04
2018-02-06T18:37:21.251Z,1008.04
2018-02-06T18:38:21.269Z,1008.04
2018-02-06T18:40:14.349Z,1008.02
2018-02-06T18:41:14.340Z,1008.01
2018-02-06T18:43:07.250Z,1008.01
2018-02-06T18:44:07.254Z,1007.98
2018-02-06T18:46:00.148Z,1007.98
2018-02-06T18:47:00.198Z,1007.98
2018-02-06T18:48:54.594Z,1007.95
2018-02-06T18:49:54.587Z,1007.98
2018-02-06T18:51:47.508Z,1007.94
2018-02-06T18:52:47.519Z,1007.93
2018-02-06T18:54:40.429Z,1007.90
2018-02-06T18:55:40.428Z,1007.90
2018-02-06T18:57:33.314Z,1007.94
2018-02-06T18:58:33.363Z,1007.95
2018-02-06T19:00:26.233Z,1007.94
2018-02-06T19:01:26.310Z,1007.96
2018-02-06T19:03:19.150Z,1007.96
2018-02-06T19:04:19.131Z,1008.02
2018-02-06T19:06:13.013Z,1008.02
2018-02-06T19:07:13.037Z,1008.01
2018-02-06T19:09:05.936Z,1008.02
2018-02-06T19:10:05.934Z,1008.02
2018-02-06T19:11:58.820Z,1008.04
2018-02-06T19:12:58.841Z,1008.04
2018-02-06T19:14:51.760Z,1008.06
2018-02-06T19:15:51.742Z,1008.03
2018-02-06T19:17:44.633Z,1008.03
2018-02-06T19:18:44.751Z,1008.08
2018-02-06T19:20:37.559Z,1008.01
2018-02-06T19:21:37.564Z,1008.02
2018-02-06T19:23:30.706Z,1008.04